createdAt,value
2023-05-05T00:00:27.256Z,9.67
2023-05-05T00:01:27.264Z,9.69
2023-05-05T00:02:27.460Z,9.70
2023-05-05T00:03:28.070Z,9.69
2023-05-05T00:04:27.348Z,9.65
2023-05-05T00:05:27.340Z,9.64
2023-05-05T00:06:27.391Z,9.63
2023-05-05T00:07:27.562Z,9.63
2023-05-05T00:08:27.559Z,9.64
2023-05-05T00:09:27.611Z,9.61
2023-05-05T00:10:28.597Z,9.61
2023-05-05T00:11:27.755Z,9.60
2023-05-05T00:12:27.803Z,9.58
2023-05-05T00:13:27.854Z,9.58
2023-05-05T00:14:27.919Z,9.55
2023-05-05T00:15:28.020Z,9.53
2023-05-05T00:16:28.126Z,9.37
2023-05-05T00:17:28.155Z,9.33
2023-05-05T00:18:30.042Z,9.36
2023-05-05T00:19:28.271Z,9.36
2023-05-05T00:20:28.385Z,9.35
2023-05-05T00:21:28.482Z,9.32
2023-05-05T00:22:28.531Z,9.30
2023-05-05T00:23:29.571Z,9.30
2023-05-05T00:24:28.618Z,9.29
2023-05-05T00:25:28.694Z,9.27
2023-05-05T00:26:29.494Z,9.26
2023-05-05T00:27:28.824Z,9.25
2023-05-05T00:28:28.796Z,9.27
2023-05-05T00:29:29.539Z,9.27
2023-05-05T00:30:28.956Z,9.29
2023-05-05T00:31:29.685Z,9.29
2023-05-05T00:32:28.942Z,9.32
2023-05-05T00:33:28.906Z,9.29
2023-05-05T00:34:28.968Z,9.30
2023-05-05T00:35:28.923Z,9.32
2023-05-05T00:36:28.945Z,9.29
2023-05-05T00:37:28.958Z,9.32
2023-05-05T00:38:29.042Z,9.33
2023-05-05T00:39:29.003Z,9.29
2023-05-05T00:40:29.023Z,9.32
2023-05-05T00:41:30.146Z,9.30
2023-05-05T00:42:29.099Z,9.27
2023-05-05T00:43:29.074Z,9.27
2023-05-05T00:44:29.109Z,9.25
2023-05-05T00:45:29.204Z,9.25
2023-05-05T00:46:29.250Z,9.27
2023-05-05T00:47:29.347Z,9.27
2023-05-05T00:48:29.220Z,9.25
2023-05-05T00:49:29.319Z,9.23
2023-05-05T00:50:29.356Z,9.23
2023-05-05T00:51:30.363Z,9.23
2023-05-05T00:52:29.263Z,9.25
2023-05-05T00:53:30.086Z,9.26
2023-05-05T00:54:30.130Z,9.22
2023-05-05T00:55:30.110Z,9.18
2023-05-05T00:56:29.479Z,9.18
2023-05-05T00:57:29.540Z,9.15
2023-05-05T00:58:30.515Z,9.15
2023-05-05T00:59:29.674Z,9.18
2023-05-05T01:00:29.608Z,9.18
2023-05-05T01:01:30.537Z,9.12
2023-05-05T01:02:30.119Z,9.14
2023-05-05T01:03:29.895Z,9.14
2023-05-05T01:04:36.515Z,9.09
2023-05-05T01:05:29.855Z,9.08
2023-05-05T01:06:29.893Z,9.11
2023-05-05T01:07:29.892Z,9.08
2023-05-05T01:08:31.636Z,9.04
2023-05-05T01:09:29.896Z,9.04
2023-05-05T01:10:29.942Z,9.04
2023-05-05T01:11:29.915Z,9.05
2023-05-05T01:12:30.531Z,9.05
2023-05-05T01:13:31.555Z,9.08
2023-05-05T01:14:29.995Z,9.09
2023-05-05T01:15:29.999Z,9.09
2023-05-05T01:16:30.110Z,9.09
2023-05-05T01:17:30.085Z,9.08
2023-05-05T01:18:30.093Z,9.04
2023-05-05T01:19:30.086Z,9.02
2023-05-05T01:20:30.126Z,9.05
2023-05-05T01:21:31.044Z,9.05
2023-05-05T01:22:30.484Z,9.04
2023-05-05T01:23:30.232Z,9.07
2023-05-05T01:24:30.196Z,9.07
2023-05-05T01:25:30.354Z,9.05
2023-05-05T01:26:30.439Z,9.05
2023-05-05T01:27:30.318Z,9.05
2023-05-05T01:28:30.451Z,9.07
2023-05-05T01:29:35.126Z,9.05
2023-05-05T01:30:30.433Z,9.02
2023-05-05T01:31:30.579Z,9.07
2023-05-05T01:32:30.916Z,9.05
2023-05-05T01:33:31.054Z,9.01
2023-05-05T01:34:30.600Z,9.02
2023-05-05T01:35:31.605Z,9.04
2023-05-05T01:36:30.527Z,9.04
2023-05-05T01:37:30.663Z,9.04
2023-05-05T01:38:31.567Z,9.04
2023-05-05T01:39:30.627Z,8.91
2023-05-05T01:40:31.617Z,8.94
2023-05-05T01:41:30.684Z,8.98
2023-05-05T01:42:30.819Z,8.99
2023-05-05T01:43:30.699Z,8.97
2023-05-05T01:44:31.578Z,8.97
2023-05-05T01:45:30.814Z,8.97
2023-05-05T01:46:30.700Z,8.95
2023-05-05T01:47:30.809Z,8.98
2023-05-05T01:48:31.523Z,8.99
2023-05-05T01:49:32.520Z,9.01
2023-05-05T01:50:31.501Z,8.99
2023-05-05T01:51:31.052Z,8.99
2023-05-05T01:52:31.117Z,8.99
2023-05-05T01:53:31.341Z,8.99
2023-05-05T01:54:31.171Z,8.99
2023-05-05T01:55:31.387Z,9.02
2023-05-05T01:56:31.174Z,9.04
2023-05-05T01:57:31.352Z,9.04
2023-05-05T01:58:31.400Z,9.05
2023-05-05T01:59:31.501Z,9.07
2023-05-05T02:00:33.030Z,9.05
2023-05-05T02:01:31.595Z,9.05
2023-05-05T02:02:31.614Z,9.05
2023-05-05T02:03:31.510Z,9.04
2023-05-05T02:04:31.583Z,9.04
2023-05-05T02:05:31.527Z,9.02
2023-05-05T02:06:31.781Z,9.01
2023-05-05T02:07:31.574Z,9.02
2023-05-05T02:08:31.599Z,8.97
2023-05-05T02:09:31.664Z,8.94
2023-05-05T02:10:31.676Z,8.95
2023-05-05T02:11:32.523Z,8.95
2023-05-05T02:12:31.888Z,8.90
2023-05-05T02:13:31.826Z,8.73
2023-05-05T02:14:31.908Z,8.77
2023-05-05T02:15:31.969Z,8.80
2023-05-05T02:16:33.015Z,8.77
2023-05-05T02:17:32.163Z,8.70
2023-05-05T02:18:32.139Z,8.73
2023-05-05T02:19:32.301Z,8.74
2023-05-05T02:20:33.096Z,8.74
2023-05-05T02:21:33.017Z,8.64
2023-05-05T02:22:32.421Z,8.70
2023-05-05T02:23:34.457Z,8.70
2023-05-05T02:24:33.532Z,8.68
2023-05-05T02:25:32.586Z,8.61
2023-05-05T02:26:32.709Z,8.67
2023-05-05T02:27:33.070Z,8.61
2023-05-05T02:28:33.531Z,8.64
2023-05-05T02:29:32.856Z,8.68
2023-05-05T02:30:33.600Z,8.61
2023-05-05T02:31:33.012Z,8.68
2023-05-05T02:32:33.040Z,8.73
2023-05-05T02:33:33.278Z,8.77
2023-05-05T02:34:33.103Z,8.82
2023-05-05T02:35:33.194Z,8.85
2023-05-05T02:36:33.256Z,8.91
2023-05-05T02:37:33.192Z,8.92
2023-05-05T02:38:33.228Z,8.91
2023-05-05T02:39:33.283Z,8.87
2023-05-05T02:40:33.308Z,8.85
2023-05-05T02:41:33.432Z,8.80
2023-05-05T02:42:33.611Z,8.87
2023-05-05T02:43:33.523Z,8.92
2023-05-05T02:44:33.521Z,8.91
2023-05-05T02:45:35.522Z,8.68
2023-05-05T02:46:33.650Z,8.73
2023-05-05T02:47:33.645Z,8.56
2023-05-05T02:48:34.039Z,8.70
2023-05-05T02:49:40.745Z,8.74
2023-05-05T02:50:33.618Z,8.81
2023-05-05T02:51:33.782Z,8.85
2023-05-05T02:52:33.676Z,8.94
2023-05-05T02:53:33.686Z,8.97
2023-05-05T02:54:33.769Z,8.98
2023-05-05T02:55:33.781Z,9.02
2023-05-05T02:56:33.806Z,9.05
2023-05-05T02:57:33.825Z,9.08
2023-05-05T02:58:33.857Z,9.14
2023-05-05T02:59:33.830Z,9.14
2023-05-05T03:00:33.892Z,9.14
2023-05-05T03:01:33.956Z,9.15
2023-05-05T03:02:34.016Z,9.11
2023-05-05T03:03:34.093Z,9.15
2023-05-05T03:04:34.017Z,9.18
2023-05-05T03:05:34.109Z,9.16
2023-05-05T03:06:34.114Z,9.14
2023-05-05T03:07:34.116Z,9.12
2023-05-05T03:08:35.012Z,8.98
2023-05-05T03:09:34.255Z,9.07
2023-05-05T03:10:34.215Z,9.01
2023-05-05T03:11:34.228Z,9.05
2023-05-05T03:12:34.312Z,9.07
2023-05-05T03:13:34.565Z,9.04
2023-05-05T03:14:34.342Z,8.95
2023-05-05T03:15:34.364Z,8.95
2023-05-05T03:16:34.478Z,8.95
2023-05-05T03:17:34.441Z,8.91
2023-05-05T03:18:34.513Z,8.88
2023-05-05T03:19:35.024Z,8.94
2023-05-05T03:20:34.573Z,8.90
2023-05-05T03:21:34.622Z,8.92
2023-05-05T03:22:34.776Z,8.90
2023-05-05T03:23:34.865Z,8.85
2023-05-05T03:24:34.938Z,8.74
2023-05-05T03:25:34.930Z,8.81
2023-05-05T03:26:36.536Z,8.85
2023-05-05T03:27:35.036Z,8.88
2023-05-05T03:28:35.076Z,8.87
2023-05-05T03:29:35.206Z,8.65
2023-05-05T03:30:36.136Z,8.78
2023-05-05T03:31:37.082Z,8.78
2023-05-05T03:32:36.046Z,8.81
2023-05-05T03:33:35.389Z,8.81
2023-05-05T03:34:36.685Z,8.84
2023-05-05T03:35:35.593Z,8.82
2023-05-05T03:36:35.664Z,8.80
2023-05-05T03:37:35.736Z,8.82
2023-05-05T03:38:35.838Z,8.85
2023-05-05T03:39:35.920Z,8.84
2023-05-05T03:40:43.692Z,8.85
2023-05-05T03:41:37.021Z,8.85
2023-05-05T03:42:37.207Z,8.85
2023-05-05T03:43:36.078Z,8.78
2023-05-05T03:44:36.117Z,8.73
2023-05-05T03:45:36.206Z,8.75
2023-05-05T03:46:36.241Z,8.75
2023-05-05T03:47:36.351Z,8.63
2023-05-05T03:48:36.299Z,8.67
2023-05-05T03:49:36.345Z,8.73
2023-05-05T03:50:36.402Z,8.75
2023-05-05T03:51:37.186Z,8.78
2023-05-05T03:52:36.547Z,8.80
2023-05-05T03:53:36.514Z,8.81
2023-05-05T03:54:36.549Z,8.81
2023-05-05T03:55:37.635Z,8.80
2023-05-05T03:56:36.637Z,8.85
2023-05-05T03:57:36.721Z,8.87
2023-05-05T03:58:36.785Z,8.91
2023-05-05T03:59:36.817Z,8.90
2023-05-05T04:00:36.883Z,8.91
2023-05-05T04:01:36.935Z,8.84
2023-05-05T04:02:37.008Z,8.87
2023-05-05T04:03:37.058Z,8.92
2023-05-05T04:04:37.099Z,8.75
2023-05-05T04:05:37.014Z,8.81
2023-05-05T04:06:37.009Z,8.88
2023-05-05T04:07:37.039Z,8.95
2023-05-05T04:08:37.159Z,8.99
2023-05-05T04:09:37.114Z,9.02
2023-05-05T04:10:37.128Z,9.07
2023-05-05T04:11:37.276Z,9.09
2023-05-05T04:12:37.251Z,9.15
2023-05-05T04:13:37.233Z,9.04
2023-05-05T04:14:37.258Z,9.16
2023-05-05T04:15:37.349Z,9.21
2023-05-05T04:16:37.518Z,9.21
2023-05-05T04:17:37.507Z,9.23
2023-05-05T04:18:37.545Z,9.27
2023-05-05T04:19:38.535Z,9.32
2023-05-05T04:20:37.682Z,9.39
2023-05-05T04:21:37.699Z,9.33
2023-05-05T04:22:37.730Z,9.21
2023-05-05T04:23:37.799Z,9.37
2023-05-05T04:24:37.830Z,9.39
2023-05-05T04:25:37.870Z,9.50
2023-05-05T04:26:37.904Z,9.33
2023-05-05T04:27:38.084Z,9.37
2023-05-05T04:28:38.030Z,9.49
2023-05-05T04:29:38.103Z,9.49
2023-05-05T04:30:38.214Z,9.43
2023-05-05T04:31:38.370Z,9.44
2023-05-05T04:32:38.385Z,9.32
2023-05-05T04:33:38.369Z,9.58
2023-05-05T04:34:38.391Z,9.77
2023-05-05T04:35:38.396Z,9.95
2023-05-05T04:36:38.492Z,10.08
2023-05-05T04:37:38.502Z,10.20
2023-05-05T04:38:38.559Z,10.32
2023-05-05T04:39:38.614Z,10.44
2023-05-05T04:40:38.685Z,10.54
2023-05-05T04:41:38.811Z,10.67
2023-05-05T04:42:38.823Z,10.75
2023-05-05T04:43:38.876Z,10.87
2023-05-05T04:44:38.929Z,10.90
2023-05-05T04:45:38.889Z,10.99
2023-05-05T04:46:38.968Z,10.84
2023-05-05T04:47:39.077Z,10.99
2023-05-05T04:48:39.571Z,11.05
2023-05-05T04:49:39.133Z,11.19
2023-05-05T04:50:39.208Z,11.26
2023-05-05T04:51:39.280Z,11.26
2023-05-05T04:52:39.355Z,11.05
2023-05-05T04:53:39.358Z,11.01
2023-05-05T04:54:39.423Z,11.18
2023-05-05T04:55:39.422Z,11.26
2023-05-05T04:56:39.458Z,10.85
2023-05-05T04:57:39.497Z,11.13
2023-05-05T04:58:39.584Z,11.27
2023-05-05T04:59:39.703Z,11.49
2023-05-05T05:00:39.669Z,11.66
2023-05-05T05:01:39.744Z,11.78
2023-05-05T05:02:39.850Z,11.96
2023-05-05T05:03:39.846Z,12.01
2023-05-05T05:04:39.842Z,12.18
2023-05-05T05:05:39.879Z,12.37
2023-05-05T05:06:39.840Z,12.48
2023-05-05T05:07:39.921Z,12.61
2023-05-05T05:08:39.880Z,12.74
2023-05-05T05:09:39.847Z,12.88
2023-05-05T05:10:39.862Z,13.02
2023-05-05T05:11:39.826Z,13.15
2023-05-05T05:12:39.820Z,13.25
2023-05-05T05:13:39.824Z,13.35
2023-05-05T05:14:39.843Z,13.36
2023-05-05T05:15:39.790Z,13.43
2023-05-05T05:16:39.838Z,13.47
2023-05-05T05:17:39.835Z,13.47
2023-05-05T05:18:39.794Z,13.46
2023-05-05T05:19:39.799Z,13.45
2023-05-05T05:20:39.797Z,13.47
2023-05-05T05:21:39.777Z,13.30
2023-05-05T05:22:39.854Z,13.35
2023-05-05T05:23:40.066Z,13.37
2023-05-05T05:24:39.816Z,13.23
2023-05-05T05:25:39.735Z,13.26
2023-05-05T05:26:39.807Z,13.23
2023-05-05T05:27:39.809Z,13.22
2023-05-05T05:28:39.848Z,13.22
2023-05-05T05:29:40.089Z,13.09
2023-05-05T05:30:40.698Z,12.96
2023-05-05T05:31:39.932Z,13.06
2023-05-05T05:32:40.087Z,13.09
2023-05-05T05:33:39.938Z,12.90
2023-05-05T05:34:39.906Z,12.94
2023-05-05T05:35:40.544Z,13.01
2023-05-05T05:36:39.957Z,12.95
2023-05-05T05:37:40.012Z,13.02
2023-05-05T05:38:40.031Z,13.05
2023-05-05T05:39:41.926Z,13.01
2023-05-05T05:40:39.964Z,12.98
2023-05-05T05:41:40.550Z,12.99
2023-05-05T05:42:39.948Z,12.96
2023-05-05T05:43:39.901Z,12.94
2023-05-05T05:44:39.933Z,12.64
2023-05-05T05:45:39.884Z,12.68
2023-05-05T05:46:40.006Z,12.70
2023-05-05T05:47:39.880Z,12.73
2023-05-05T05:48:39.911Z,12.71
2023-05-05T05:49:39.816Z,12.74
2023-05-05T05:50:39.812Z,12.70
2023-05-05T05:51:39.814Z,12.73
2023-05-05T05:52:39.835Z,12.77
2023-05-05T05:53:39.794Z,12.78
2023-05-05T05:54:39.863Z,12.68
2023-05-05T05:55:39.786Z,12.71
2023-05-05T05:56:39.796Z,12.70
2023-05-05T05:57:39.841Z,12.75
2023-05-05T05:58:41.978Z,12.78
2023-05-05T05:59:39.872Z,12.80
2023-05-05T06:00:39.931Z,12.78
2023-05-05T06:01:40.002Z,12.80
2023-05-05T06:02:40.072Z,12.85
2023-05-05T06:03:40.003Z,12.85
2023-05-05T06:04:39.960Z,12.88
2023-05-05T06:05:39.986Z,12.80
2023-05-05T06:06:39.935Z,12.90
2023-05-05T06:07:39.897Z,12.90
2023-05-05T06:08:39.870Z,12.94
2023-05-05T06:09:39.858Z,12.96
2023-05-05T06:10:39.858Z,13.02
2023-05-05T06:11:39.889Z,13.05
2023-05-05T06:12:39.803Z,13.01
2023-05-05T06:13:39.819Z,13.08
2023-05-05T06:14:39.814Z,13.09
2023-05-05T06:15:39.889Z,13.13
2023-05-05T06:16:39.864Z,13.15
2023-05-05T06:17:39.951Z,13.18
2023-05-05T06:18:40.060Z,13.18
2023-05-05T06:19:39.977Z,13.20
2023-05-05T06:20:40.004Z,13.22
2023-05-05T06:21:40.001Z,13.25
2023-05-05T06:22:39.972Z,13.26
2023-05-05T06:23:40.069Z,13.30
2023-05-05T06:24:39.980Z,13.35
2023-05-05T06:25:39.935Z,13.45
2023-05-05T06:26:40.021Z,13.60
2023-05-05T06:27:39.913Z,13.78
2023-05-05T06:28:39.877Z,13.99
2023-05-05T06:29:39.863Z,14.29
2023-05-05T06:30:39.831Z,14.48
2023-05-05T06:31:39.826Z,14.70
2023-05-05T06:32:39.774Z,14.92
2023-05-05T06:33:39.730Z,15.05
2023-05-05T06:34:39.660Z,15.25
2023-05-05T06:35:40.585Z,15.36
2023-05-05T06:36:39.654Z,15.49
2023-05-05T06:37:40.574Z,15.71
2023-05-05T06:38:39.627Z,15.94
2023-05-05T06:39:39.641Z,16.12
2023-05-05T06:40:40.085Z,16.30
2023-05-05T06:41:39.625Z,16.39
2023-05-05T06:42:39.611Z,16.36
2023-05-05T06:43:39.577Z,16.34
2023-05-05T06:44:39.589Z,16.61
2023-05-05T06:45:39.488Z,16.86
2023-05-05T06:46:40.221Z,17.03
2023-05-05T06:47:40.609Z,17.01
2023-05-05T06:48:39.443Z,17.02
2023-05-05T06:49:39.421Z,16.85
2023-05-05T06:50:39.336Z,16.74
2023-05-05T06:51:41.056Z,16.63
2023-05-05T06:52:39.265Z,16.49
2023-05-05T06:53:39.306Z,16.44
2023-05-05T06:54:39.117Z,16.39
2023-05-05T06:55:39.067Z,16.41
2023-05-05T06:56:39.038Z,16.30
2023-05-05T06:57:38.947Z,16.34
2023-05-05T06:58:38.981Z,16.36
2023-05-05T06:59:38.881Z,16.40
2023-05-05T07:00:38.865Z,16.77
2023-05-05T07:01:38.832Z,16.72
2023-05-05T07:02:38.982Z,16.77
2023-05-05T07:03:38.721Z,16.71
2023-05-05T07:04:38.623Z,16.64
2023-05-05T07:05:38.597Z,16.66
2023-05-05T07:06:38.573Z,16.81
2023-05-05T07:07:38.492Z,16.78
2023-05-05T07:08:38.477Z,16.70
2023-05-05T07:09:38.461Z,16.72
2023-05-05T07:10:38.372Z,16.94
2023-05-05T07:11:38.515Z,17.02
2023-05-05T07:12:38.261Z,17.02
2023-05-05T07:13:38.193Z,17.36
2023-05-05T07:14:38.164Z,17.36
2023-05-05T07:15:38.082Z,17.60
2023-05-05T07:16:38.124Z,17.92
2023-05-05T07:17:37.985Z,18.08
2023-05-05T07:18:38.169Z,18.02
2023-05-05T07:19:37.826Z,17.88
2023-05-05T07:20:37.773Z,17.67
2023-05-05T07:21:37.723Z,17.67
2023-05-05T07:22:37.803Z,17.56
2023-05-05T07:23:37.551Z,17.43
2023-05-05T07:24:37.510Z,17.54
2023-05-05T07:25:37.478Z,17.53
2023-05-05T07:26:38.131Z,17.46
2023-05-05T07:27:37.312Z,17.50
2023-05-05T07:28:37.308Z,17.56
2023-05-05T07:29:37.261Z,17.63
2023-05-05T07:30:37.162Z,17.60
2023-05-05T07:31:37.139Z,17.84
2023-05-05T07:32:37.157Z,17.92
2023-05-05T07:33:37.126Z,17.93
2023-05-05T07:34:37.465Z,18.22
2023-05-05T07:35:37.628Z,18.51
2023-05-05T07:36:36.986Z,18.76
2023-05-05T07:37:36.997Z,18.99
2023-05-05T07:38:37.114Z,19.17
2023-05-05T07:39:37.495Z,19.37
2023-05-05T07:40:36.731Z,19.57
2023-05-05T07:41:36.771Z,19.40
2023-05-05T07:42:36.525Z,19.64
2023-05-05T07:43:36.460Z,19.38
2023-05-05T07:44:36.474Z,19.74
2023-05-05T07:45:36.320Z,19.78
2023-05-05T07:46:37.139Z,20.02
2023-05-05T07:47:36.091Z,19.80
2023-05-05T07:48:38.583Z,19.64
2023-05-05T07:49:36.134Z,19.57
2023-05-05T07:50:36.621Z,19.30
2023-05-05T07:51:35.964Z,19.71
2023-05-05T07:52:44.963Z,19.89
2023-05-05T07:53:36.796Z,20.08
2023-05-05T07:54:35.719Z,20.16
2023-05-05T07:55:35.595Z,20.37
2023-05-05T07:56:35.570Z,20.32
2023-05-05T07:57:36.449Z,20.67
2023-05-05T07:58:35.541Z,20.84
2023-05-05T07:59:35.165Z,20.84
2023-05-05T08:00:35.059Z,20.36
2023-05-05T08:01:34.933Z,20.66
2023-05-05T08:02:34.957Z,20.98
2023-05-05T08:03:34.983Z,21.26
2023-05-05T08:04:35.758Z,21.50
2023-05-05T08:05:34.552Z,21.39
2023-05-05T08:06:34.466Z,21.23
2023-05-05T08:07:34.324Z,21.32
2023-05-05T08:08:34.191Z,21.64
2023-05-05T08:09:34.054Z,21.50
2023-05-05T08:10:33.982Z,21.19
2023-05-05T08:11:33.897Z,21.25
2023-05-05T08:12:33.830Z,21.23
2023-05-05T08:13:34.899Z,21.18
2023-05-05T08:14:34.157Z,21.13
2023-05-05T08:15:33.400Z,21.05
2023-05-05T08:16:33.328Z,21.36
2023-05-05T08:17:33.222Z,21.32
2023-05-05T08:18:33.062Z,21.40
2023-05-05T08:19:32.959Z,21.44
2023-05-05T08:20:32.830Z,21.40
2023-05-05T08:21:33.608Z,21.40
2023-05-05T08:22:33.107Z,21.40
2023-05-05T08:23:32.677Z,21.44
2023-05-05T08:24:32.515Z,21.69
2023-05-05T08:25:32.269Z,22.02
2023-05-05T08:26:32.176Z,22.29
2023-05-05T08:27:32.242Z,22.54
2023-05-05T08:28:32.179Z,22.76
2023-05-05T08:29:32.163Z,23.01
2023-05-05T08:30:32.008Z,23.03
2023-05-05T08:31:31.829Z,23.29
2023-05-05T08:32:31.687Z,23.43
2023-05-05T08:33:31.602Z,23.52
2023-05-05T08:34:31.558Z,23.70
2023-05-05T08:35:31.400Z,23.77
2023-05-05T08:36:31.293Z,23.85
2023-05-05T08:37:31.168Z,23.87
2023-05-05T08:38:31.064Z,23.98
2023-05-05T08:39:31.207Z,23.97
2023-05-05T08:40:30.893Z,24.05
2023-05-05T08:41:30.700Z,24.01
2023-05-05T08:42:37.772Z,24.26
2023-05-05T08:43:31.471Z,24.29
2023-05-05T08:44:30.386Z,24.32
2023-05-05T08:45:30.646Z,23.99
2023-05-05T08:46:30.137Z,23.94
2023-05-05T08:47:30.020Z,24.12
2023-05-05T08:48:29.855Z,24.32
2023-05-05T08:49:30.116Z,23.67
2023-05-05T08:50:29.670Z,24.09
2023-05-05T08:51:29.472Z,23.36
2023-05-05T08:52:29.377Z,23.23
2023-05-05T08:53:29.206Z,23.52
2023-05-05T08:54:29.168Z,23.52
2023-05-05T08:55:28.969Z,22.63
2023-05-05T08:56:28.839Z,22.98
2023-05-05T08:57:28.676Z,22.99
2023-05-05T08:58:29.364Z,22.95
2023-05-05T08:59:28.710Z,22.68
2023-05-05T09:00:28.469Z,22.53
2023-05-05T09:01:29.226Z,22.32
2023-05-05T09:02:28.128Z,21.94
2023-05-05T09:03:27.980Z,22.22
2023-05-05T09:04:27.889Z,21.75
2023-05-05T09:05:27.696Z,21.50
2023-05-05T09:06:27.613Z,21.33
2023-05-05T09:07:27.453Z,21.54
2023-05-05T09:08:27.323Z,21.74
2023-05-05T09:09:27.319Z,22.16
2023-05-05T09:10:27.787Z,21.89
2023-05-05T09:11:26.978Z,22.43
2023-05-05T09:12:27.016Z,22.46
2023-05-05T09:13:27.644Z,22.32
2023-05-05T09:14:26.746Z,21.98
2023-05-05T09:15:26.772Z,21.44
2023-05-05T09:16:26.441Z,21.18
2023-05-05T09:17:26.383Z,21.01
2023-05-05T09:18:26.166Z,21.21
2023-05-05T09:19:26.046Z,21.51
2023-05-05T09:20:25.935Z,21.16
2023-05-05T09:21:25.853Z,21.22
2023-05-05T09:22:25.725Z,21.44
2023-05-05T09:23:25.702Z,21.13
2023-05-05T09:24:25.682Z,21.21
2023-05-05T09:25:25.403Z,21.40
2023-05-05T09:26:25.244Z,21.80
2023-05-05T09:27:25.138Z,22.11
2023-05-05T09:28:25.061Z,22.29
2023-05-05T09:29:25.374Z,22.47
2023-05-05T09:30:24.875Z,22.71
2023-05-05T09:31:24.828Z,22.82
2023-05-05T09:32:24.822Z,22.97
2023-05-05T09:33:24.661Z,22.60
2023-05-05T09:34:24.528Z,22.71
2023-05-05T09:35:24.566Z,22.60
2023-05-05T09:36:24.448Z,22.58
2023-05-05T09:37:24.333Z,22.40
2023-05-05T09:38:26.355Z,22.51
2023-05-05T09:39:24.364Z,22.99
2023-05-05T09:40:24.041Z,22.32
2023-05-05T09:41:23.858Z,22.39
2023-05-05T09:42:23.923Z,22.37
2023-05-05T09:43:24.134Z,22.67
2023-05-05T09:44:23.584Z,22.68
2023-05-05T09:45:24.159Z,22.82
2023-05-05T09:46:23.616Z,22.87
2023-05-05T09:47:29.593Z,22.78
2023-05-05T09:48:24.463Z,22.58
2023-05-05T09:49:23.329Z,23.23
2023-05-05T09:50:23.093Z,23.47
2023-05-05T09:51:22.998Z,22.56
2023-05-05T09:52:22.910Z,22.97
2023-05-05T09:53:22.749Z,22.82
2023-05-05T09:54:22.655Z,22.58
2023-05-05T09:55:23.128Z,22.50
2023-05-05T09:56:22.395Z,23.18
2023-05-05T09:57:25.177Z,23.06
2023-05-05T09:58:22.287Z,23.02
2023-05-05T09:59:22.190Z,22.81
2023-05-05T10:00:21.976Z,22.75
2023-05-05T10:01:21.846Z,22.47
2023-05-05T10:02:21.682Z,23.09
2023-05-05T10:03:22.160Z,23.26
2023-05-05T10:04:21.498Z,23.23
2023-05-05T10:05:21.460Z,23.16
2023-05-05T10:06:21.228Z,22.97
2023-05-05T10:07:21.114Z,22.85
2023-05-05T10:08:21.085Z,23.37
2023-05-05T10:09:22.048Z,23.82
2023-05-05T10:10:20.738Z,23.54
2023-05-05T10:11:20.604Z,23.36
2023-05-05T10:12:20.497Z,23.60
2023-05-05T10:13:20.472Z,23.18
2023-05-05T10:14:20.227Z,22.95
2023-05-05T10:15:20.433Z,22.79
2023-05-05T10:16:20.249Z,22.53
2023-05-05T10:17:20.738Z,22.51
2023-05-05T10:18:19.785Z,22.76
2023-05-05T10:19:20.176Z,23.05
2023-05-05T10:20:19.493Z,23.63
2023-05-05T10:21:20.236Z,23.81
2023-05-05T10:22:19.449Z,23.75
2023-05-05T10:23:19.043Z,24.12
2023-05-05T10:24:19.108Z,24.54
2023-05-05T10:25:18.799Z,24.77
2023-05-05T10:26:18.624Z,24.77
2023-05-05T10:27:18.665Z,25.21
2023-05-05T10:28:18.370Z,24.68
2023-05-05T10:29:18.242Z,24.75
2023-05-05T10:30:18.133Z,24.25
2023-05-05T10:31:25.748Z,24.32
2023-05-05T10:32:47.037Z,24.47
2023-05-05T10:33:30.373Z,24.56
2023-05-05T10:34:18.595Z,24.94
2023-05-05T10:35:17.436Z,24.77
2023-05-05T10:36:17.255Z,24.87
2023-05-05T10:37:17.716Z,25.16
2023-05-05T10:38:16.955Z,25.50
2023-05-05T10:39:17.764Z,25.84
2023-05-05T10:40:17.218Z,25.96
2023-05-05T10:41:16.526Z,25.56
2023-05-05T10:42:19.153Z,25.80
2023-05-05T10:43:16.289Z,26.05
2023-05-05T10:44:16.194Z,25.87
2023-05-05T10:45:16.294Z,25.98
2023-05-05T10:46:16.956Z,26.25
2023-05-05T10:47:16.165Z,26.43
2023-05-05T10:48:15.610Z,26.32
2023-05-05T10:49:16.458Z,26.21
2023-05-05T10:50:15.340Z,26.61
2023-05-05T10:51:21.145Z,26.49
2023-05-05T10:52:15.832Z,26.05
2023-05-05T10:53:14.733Z,25.32
2023-05-05T10:54:14.618Z,25.02
2023-05-05T10:55:14.389Z,24.84
2023-05-05T10:56:15.178Z,24.91
2023-05-05T10:57:14.113Z,24.61
2023-05-05T10:58:13.933Z,25.19
2023-05-05T10:59:14.661Z,25.33
2023-05-05T11:00:15.104Z,25.68
2023-05-05T11:01:13.589Z,25.54
2023-05-05T11:02:14.156Z,24.96
2023-05-05T11:03:13.366Z,25.02
2023-05-05T11:04:13.155Z,25.26
2023-05-05T11:05:12.981Z,25.68
2023-05-05T11:06:12.834Z,26.19
2023-05-05T11:07:15.000Z,26.29
2023-05-05T11:08:12.837Z,26.47
2023-05-05T11:09:12.566Z,26.53
2023-05-05T11:10:12.332Z,26.83
2023-05-05T11:11:12.141Z,26.87
2023-05-05T11:12:11.997Z,26.75
2023-05-05T11:13:11.872Z,26.95
2023-05-05T11:14:12.164Z,27.26
2023-05-05T11:15:11.530Z,27.57
2023-05-05T11:16:11.408Z,27.70
2023-05-05T11:17:11.249Z,27.50
2023-05-05T11:18:11.143Z,27.94
2023-05-05T11:19:11.706Z,28.05
2023-05-05T11:20:10.939Z,28.16
2023-05-05T11:21:10.683Z,28.27
2023-05-05T11:22:10.502Z,28.27
2023-05-05T11:23:10.370Z,28.32
2023-05-05T11:24:10.193Z,28.36
2023-05-05T11:25:10.060Z,28.39
2023-05-05T11:26:09.891Z,28.57
2023-05-05T11:27:09.714Z,28.66
2023-05-05T11:28:09.561Z,28.36
2023-05-05T11:29:09.448Z,28.63
2023-05-05T11:30:10.726Z,28.71
2023-05-05T11:31:09.105Z,28.78
2023-05-05T11:32:09.037Z,28.95
2023-05-05T11:33:08.795Z,29.04
2023-05-05T11:34:08.604Z,29.11
2023-05-05T11:35:08.714Z,29.12
2023-05-05T11:36:08.297Z,28.74
2023-05-05T11:37:08.157Z,29.11
2023-05-05T11:38:08.010Z,29.30
2023-05-05T11:39:07.868Z,29.46
2023-05-05T11:40:07.905Z,29.15
2023-05-05T11:41:07.613Z,29.48
2023-05-05T11:42:10.737Z,29.60
2023-05-05T11:43:07.249Z,29.54
2023-05-05T11:44:07.027Z,29.50
2023-05-05T11:45:06.855Z,29.37
2023-05-05T11:46:06.694Z,29.32
2023-05-05T11:47:06.526Z,29.26
2023-05-05T11:48:07.000Z,29.25
2023-05-05T11:49:06.176Z,29.25
2023-05-05T11:50:06.167Z,28.84
2023-05-05T11:51:05.819Z,29.14
2023-05-05T11:52:05.627Z,29.14
2023-05-05T11:53:05.455Z,29.08
2023-05-05T11:54:05.326Z,29.06
2023-05-05T11:55:05.193Z,28.99
2023-05-05T11:56:05.045Z,28.93
2023-05-05T11:57:05.069Z,28.86
2023-05-05T11:58:04.788Z,28.88
2023-05-05T11:59:04.709Z,29.04
2023-05-05T12:00:04.586Z,29.22
2023-05-05T12:01:04.481Z,29.23
2023-05-05T12:02:04.370Z,29.19
2023-05-05T12:03:04.354Z,28.44
2023-05-05T12:04:04.253Z,28.53
2023-05-05T12:05:04.052Z,28.57
2023-05-05T12:06:03.876Z,28.64
2023-05-05T12:07:03.710Z,28.60
2023-05-05T12:08:03.571Z,28.77
2023-05-05T12:09:03.516Z,28.66
2023-05-05T12:10:03.372Z,27.95
2023-05-05T12:11:03.259Z,28.33
2023-05-05T12:12:03.077Z,28.66
2023-05-05T12:13:02.982Z,28.88
2023-05-05T12:14:02.796Z,29.09
2023-05-05T12:15:02.664Z,29.22
2023-05-05T12:16:02.541Z,29.40
2023-05-05T12:17:02.348Z,29.45
2023-05-05T12:18:03.328Z,29.48
2023-05-05T12:19:02.166Z,29.36
2023-05-05T12:20:01.985Z,29.21
2023-05-05T12:21:01.991Z,29.21
2023-05-05T12:22:01.649Z,29.45
2023-05-05T12:23:01.521Z,29.52
2023-05-05T12:24:01.307Z,29.37
2023-05-05T12:25:01.144Z,29.53
2023-05-05T12:26:01.047Z,29.49
2023-05-05T12:27:00.778Z,29.70
2023-05-05T12:28:00.602Z,29.77
2023-05-05T12:29:00.522Z,29.74
2023-05-05T12:30:00.229Z,29.77
2023-05-05T12:31:00.227Z,29.80
2023-05-05T12:31:59.910Z,29.01
2023-05-05T12:32:59.788Z,28.53
2023-05-05T12:33:59.535Z,28.27
2023-05-05T12:34:59.380Z,28.30
2023-05-05T12:36:01.248Z,28.46
2023-05-05T12:36:59.203Z,28.38
2023-05-05T12:37:59.077Z,28.61
2023-05-05T12:38:58.938Z,28.57
2023-05-05T12:39:58.840Z,28.36
2023-05-05T12:40:59.789Z,28.44
2023-05-05T12:41:58.640Z,28.40
2023-05-05T12:42:58.537Z,28.46
2023-05-05T12:43:59.185Z,28.64
2023-05-05T12:44:59.804Z,28.02
2023-05-05T12:45:58.235Z,28.53
2023-05-05T12:46:58.073Z,28.12
2023-05-05T12:47:57.974Z,28.23
2023-05-05T12:48:57.818Z,28.71
2023-05-05T12:49:57.699Z,29.04
2023-05-05T12:50:57.684Z,29.05
2023-05-05T12:51:57.422Z,29.25
2023-05-05T12:52:57.298Z,29.29
2023-05-05T12:53:57.242Z,29.64
2023-05-05T12:54:57.792Z,29.81
2023-05-05T12:55:57.794Z,30.11
2023-05-05T12:56:59.748Z,29.63
2023-05-05T12:57:56.582Z,29.95
2023-05-05T12:58:56.409Z,30.19
2023-05-05T12:59:56.722Z,30.18
2023-05-05T13:00:56.265Z,30.47